Armada Township, MI

11:39 AM EST on March 01, 2015 (GMT -0500)
KJN Weather | Change Station
CLOSE
Current Station
Personal Weather Station
Location: Ray, MI
Elevation: 696 ft
Nearby Weather Stations

Elev 696 ft 42.75 °N, 82.96 °W | Updated 2 minutes ago

Mostly Cloudy
Mostly Cloudy
22.5 °F
Feels Like 22 °F
N
0.0
Wind Variable Wind from SSE

Today
High -- | Low -- °F
--% Chance of Precip.
Yesterday
High -- | Low -- °F
Precip. -- in
7:07 AM 6:20 PM
Waxing Gibbous, 86% visible
Pressure 30.39 in
Visibility 6.0 miles
Clouds Few 2400 ft
Mostly Cloudy 6500 ft
Mostly Cloudy 20000 ft
Windchill 22 °F
Dew Point 17 °F
Humidity 79%
Rainfall 0.00 in
Snow Depth Not available.
UV 2 out of 12
Pollen .40 out of 12
Air Quality Not available.
Flu Activity Not available.
METAR KMTC 011555Z 00000KT 6SM BR FEW024 BKN065 BKN200 M08/M10 A3033 RMK SLP291 T10781102

More Conditions Fewer Conditions

Pressure 30.39 in
Visibility 6.0 miles
Clouds Few 2400 ft
Mostly Cloudy 6500 ft
Mostly Cloudy 20000 ft
Windchill 22 °F
Dew Point 17 °F
Humidity 79%
Rainfall 0.00 in
Snow Depth Not available.
UV 2 out of 12
Pollen .40 out of 12
Air Quality Not available.
Flu Activity Not available.
METAR KMTC 011555Z 00000KT 6SM BR FEW024 BKN065 BKN200 M08/M10 A3033 RMK SLP291 T10781102

More Conditions Fewer Conditions

10-Day Weather Forecast

Almanac

Astronomy

Mar. 01, 2015 Rise Set
Actual Time
Civil Twilight
Nautical Twilight
Astronomical Twilight
Moon
Length of Visible Light
Length of Day
Tomorrow will be .
, % of the Moon is Illuminated

Today's Extremes

State Highs State Lows

Community

WunderPhotos

Upload Photos

1,801,451 photos uploaded!

WunderBlogs® & News

Nearby

Air Quality

  Air Quality AQ Index Pollutant
Not available.

Snow Depth

Station Depth Elevation

Earthquake Activity

City Distance Mag. Time & Date
Minimum magnitude displayed is 2.5.

Coastal Water Temperatures

Place Temperature

Nearby Weather Stations